createdAt,value
2023-02-03T00:00:48.526Z,49.92
2023-02-03T00:03:34.809Z,49.71
2023-02-03T00:06:20.701Z,50.11
2023-02-03T00:09:06.662Z,50.64
2023-02-03T00:11:53.324Z,50.11
2023-02-03T00:14:39.470Z,50.19
2023-02-03T00:17:25.265Z,49.81
2023-02-03T00:20:11.879Z,50.29
2023-02-03T00:23:09.097Z,51.04
2023-02-03T00:25:54.767Z,51.11
2023-02-03T00:28:41.704Z,50.60
2023-02-03T00:31:27.967Z,50.71
2023-02-03T00:34:13.782Z,50.88
2023-02-03T00:36:59.772Z,51.29
2023-02-03T00:39:45.478Z,50.88
2023-02-03T00:42:35.699Z,51.41
2023-02-03T00:45:21.889Z,51.11
2023-02-03T00:48:17.167Z,52.01
2023-02-03T00:51:03.304Z,51.32
2023-02-03T00:53:49.498Z,52.35
2023-02-03T00:56:35.225Z,52.99
2023-02-03T00:59:22.005Z,52.86
2023-02-03T01:02:07.645Z,51.95
2023-02-03T01:04:53.428Z,51.66
2023-02-03T01:07:39.161Z,51.61
2023-02-03T01:10:25.240Z,52.10
2023-02-03T01:13:11.607Z,51.88
2023-02-03T01:15:57.921Z,52.29
2023-02-03T01:18:46.458Z,52.61
2023-02-03T01:21:32.923Z,52.23
2023-02-03T01:24:18.735Z,52.41
2023-02-03T01:27:06.287Z,52.13
2023-02-03T01:29:52.217Z,52.06
2023-02-03T01:32:40.683Z,52.02
2023-02-03T01:35:26.693Z,51.55
2023-02-03T01:38:13.907Z,51.90
2023-02-03T01:40:59.766Z,51.68
2023-02-03T01:43:49.574Z,52.89
2023-02-03T01:46:44.819Z,54.29
2023-02-03T01:49:35.720Z,52.31
2023-02-03T01:52:21.906Z,52.78
2023-02-03T01:55:13.423Z,52.27
2023-02-03T01:58:32.371Z,52.76
2023-02-03T02:01:19.717Z,52.47
2023-02-03T02:04:08.841Z,52.53
2023-02-03T02:06:56.587Z,52.70
2023-02-03T02:09:43.967Z,52.27
2023-02-03T02:12:29.632Z,52.26
2023-02-03T02:15:16.740Z,52.29
2023-02-03T02:18:02.558Z,52.32
2023-02-03T02:21:08.654Z,52.58
2023-02-03T02:24:15.667Z,52.04
2023-02-03T02:27:04.488Z,52.50
2023-02-03T02:30:12.111Z,52.12
2023-02-03T02:33:21.108Z,53.70
2023-02-03T02:36:07.653Z,52.35
2023-02-03T02:39:12.464Z,52.40
2023-02-03T02:42:04.834Z,52.82
2023-02-03T02:44:56.113Z,52.39
2023-02-03T02:47:42.306Z,52.58
2023-02-03T02:50:32.119Z,53.05
2023-02-03T02:53:21.693Z,52.08
2023-02-03T02:56:11.687Z,52.35
2023-02-03T02:58:58.463Z,52.48
2023-02-03T03:01:44.977Z,52.79
2023-02-03T03:04:32.751Z,52.25
2023-02-03T03:07:24.734Z,52.19
2023-02-03T03:10:14.020Z,52.07
2023-02-03T03:13:04.090Z,52.41
2023-02-03T03:15:51.632Z,52.36
2023-02-03T03:18:58.406Z,52.36
2023-02-03T03:21:49.476Z,52.57
2023-02-03T03:24:41.466Z,52.47
2023-02-03T03:27:32.504Z,52.65
2023-02-03T03:30:24.740Z,53.13
2023-02-03T03:33:10.888Z,52.58
2023-02-03T03:36:23.431Z,52.80
2023-02-03T03:39:22.531Z,54.57
2023-02-03T03:42:32.134Z,52.65
2023-02-03T03:45:17.817Z,53.02
2023-02-03T03:48:07.766Z,52.94
2023-02-03T03:50:58.828Z,52.94
2023-02-03T03:53:46.011Z,53.34
2023-02-03T03:56:40.523Z,53.15
2023-02-03T03:59:30.536Z,53.14
2023-02-03T04:02:17.502Z,53.06
2023-02-03T04:05:03.790Z,53.08
2023-02-03T04:07:49.755Z,53.22
2023-02-03T04:10:39.756Z,53.20
2023-02-03T04:13:26.709Z,52.45
2023-02-03T04:16:12.424Z,53.14
2023-02-03T04:18:58.422Z,52.79
2023-02-03T04:21:44.257Z,53.20
2023-02-03T04:24:30.292Z,53.29
2023-02-03T04:27:15.841Z,52.78
2023-02-03T04:30:01.864Z,52.66
2023-02-03T04:32:48.014Z,53.03
2023-02-03T04:35:35.146Z,53.16
2023-02-03T04:38:20.734Z,53.13
2023-02-03T04:41:06.499Z,53.32
2023-02-03T04:43:52.150Z,53.34
2023-02-03T04:46:38.099Z,53.07
2023-02-03T04:49:23.830Z,52.75
2023-02-03T04:52:10.265Z,53.00
2023-02-03T04:54:56.210Z,53.25
2023-02-03T04:57:41.947Z,53.44
2023-02-03T05:00:29.063Z,52.90
2023-02-03T05:03:14.932Z,53.30
2023-02-03T05:06:00.711Z,52.80
2023-02-03T05:08:46.482Z,52.69
2023-02-03T05:11:32.148Z,53.18
2023-02-03T05:14:17.907Z,53.26
2023-02-03T05:17:03.659Z,53.33
2023-02-03T05:19:49.461Z,53.49
2023-02-03T05:22:35.735Z,53.44
2023-02-03T05:25:21.570Z,53.83
2023-02-03T05:28:07.437Z,53.30
2023-02-03T05:30:53.482Z,53.59
2023-02-03T05:33:39.183Z,53.23
2023-02-03T05:36:25.631Z,53.27
2023-02-03T05:39:11.720Z,53.42
2023-02-03T05:41:58.605Z,53.33
2023-02-03T05:44:44.744Z,54.01
2023-02-03T05:47:30.392Z,53.76
2023-02-03T05:50:16.258Z,53.43
2023-02-03T05:53:04.307Z,53.68
2023-02-03T05:55:50.199Z,54.04
2023-02-03T05:58:36.137Z,54.07
2023-02-03T06:01:21.942Z,53.79
2023-02-03T06:04:07.689Z,53.57
2023-02-03T06:06:53.589Z,53.63
2023-02-03T06:09:39.340Z,53.31
2023-02-03T06:12:28.224Z,54.14
2023-02-03T06:15:15.426Z,53.42
2023-02-03T06:18:01.528Z,53.33
2023-02-03T06:20:47.081Z,53.42
2023-02-03T06:23:33.093Z,53.57
2023-02-03T06:26:18.730Z,53.64
2023-02-03T06:29:04.556Z,53.33
2023-02-03T06:31:50.504Z,53.97
2023-02-03T06:34:36.625Z,54.06
2023-02-03T06:37:23.907Z,54.20
2023-02-03T06:40:12.126Z,53.38
2023-02-03T06:42:58.000Z,53.57
2023-02-03T06:45:49.665Z,53.93
2023-02-03T06:48:35.502Z,53.32
2023-02-03T06:51:21.365Z,53.73
2023-02-03T06:54:07.796Z,53.29
2023-02-03T06:56:53.803Z,53.81
2023-02-03T06:59:39.324Z,53.59
2023-02-03T07:02:25.252Z,53.86
2023-02-03T07:05:11.289Z,53.98
2023-02-03T07:07:57.512Z,54.19
2023-02-03T07:10:43.459Z,54.26
2023-02-03T07:13:29.101Z,54.22
2023-02-03T07:16:14.945Z,54.34
2023-02-03T07:19:00.884Z,54.06
2023-02-03T07:21:47.166Z,53.96
2023-02-03T07:24:33.023Z,53.91
2023-02-03T07:27:19.990Z,54.06
2023-02-03T07:30:06.483Z,53.67
2023-02-03T07:32:53.615Z,53.84
2023-02-03T07:35:39.551Z,53.97
2023-02-03T07:38:26.935Z,53.58
2023-02-03T07:41:12.778Z,54.14
2023-02-03T07:43:58.443Z,53.84
2023-02-03T07:46:45.603Z,53.88
2023-02-03T07:49:31.525Z,53.58
2023-02-03T07:52:17.442Z,53.52
2023-02-03T07:55:03.970Z,53.41
2023-02-03T07:57:49.620Z,53.24
2023-02-03T08:00:35.522Z,53.11
2023-02-03T08:03:21.454Z,53.45
2023-02-03T08:06:08.064Z,53.24
2023-02-03T08:08:54.190Z,52.84
2023-02-03T08:11:40.931Z,52.98
2023-02-03T08:14:26.583Z,53.28
2023-02-03T08:17:12.443Z,52.99
2023-02-03T08:19:58.116Z,53.08
2023-02-03T08:22:45.382Z,52.71
2023-02-03T08:25:31.096Z,53.11
2023-02-03T08:28:17.165Z,52.85
2023-02-03T08:31:10.116Z,53.17
2023-02-03T08:33:56.395Z,52.91
2023-02-03T08:36:43.948Z,52.77
2023-02-03T08:39:29.643Z,52.95
2023-02-03T08:42:15.665Z,52.55
2023-02-03T08:45:02.837Z,52.50
2023-02-03T08:47:51.691Z,52.65
2023-02-03T08:50:37.519Z,52.53
2023-02-03T08:53:27.440Z,52.77
2023-02-03T08:56:22.363Z,52.56
2023-02-03T08:59:08.120Z,52.47
2023-02-03T09:01:54.054Z,52.16
2023-02-03T09:04:40.108Z,52.23
2023-02-03T09:07:26.222Z,52.40
2023-02-03T09:10:11.996Z,52.05
2023-02-03T09:12:57.631Z,51.95
2023-02-03T09:15:43.306Z,51.99
2023-02-03T09:18:29.057Z,52.16
2023-02-03T09:21:31.616Z,52.53
2023-02-03T09:24:19.006Z,52.17
2023-02-03T09:27:04.932Z,51.71
2023-02-03T09:29:50.664Z,51.52
2023-02-03T09:32:36.528Z,51.58
2023-02-03T09:35:22.811Z,50.94
2023-02-03T09:38:08.745Z,51.15
2023-02-03T09:41:21.824Z,50.96
2023-02-03T09:44:46.607Z,50.42
2023-02-03T09:47:37.875Z,50.39
2023-02-03T09:50:27.302Z,50.49
2023-02-03T09:53:19.318Z,50.22
2023-02-03T09:56:05.100Z,50.35
2023-02-03T09:58:51.216Z,49.72
2023-02-03T10:01:58.712Z,49.84
2023-02-03T10:05:20.987Z,48.18
2023-02-03T10:08:20.765Z,49.75
2023-02-03T10:11:12.556Z,49.71
2023-02-03T10:14:20.057Z,49.50
2023-02-03T10:17:14.721Z,49.70
2023-02-03T10:20:33.540Z,48.90
2023-02-03T10:23:29.089Z,49.19
2023-02-03T10:26:21.839Z,49.18
2023-02-03T10:29:35.316Z,47.65
2023-02-03T10:32:21.185Z,49.86
2023-02-03T10:35:12.787Z,49.56
2023-02-03T10:37:59.543Z,48.67
2023-02-03T10:40:45.612Z,48.69
2023-02-03T10:43:48.767Z,48.22
2023-02-03T10:46:36.685Z,48.34
2023-02-03T10:49:22.769Z,48.22
2023-02-03T10:52:08.371Z,47.89
2023-02-03T10:54:54.306Z,47.83
2023-02-03T10:57:45.079Z,47.55
2023-02-03T11:00:32.451Z,46.97
2023-02-03T11:03:29.619Z,46.51
2023-02-03T11:06:17.402Z,47.10
2023-02-03T11:09:22.616Z,46.36
2023-02-03T11:12:14.215Z,47.25
2023-02-03T11:15:06.585Z,44.89
2023-02-03T11:17:52.225Z,46.82
2023-02-03T11:20:38.244Z,46.22
2023-02-03T11:23:23.970Z,46.79
2023-02-03T11:26:14.400Z,47.32
2023-02-03T11:29:02.538Z,47.05
2023-02-03T11:32:02.032Z,46.12
2023-02-03T11:34:58.038Z,46.18
2023-02-03T11:37:45.988Z,46.25
2023-02-03T11:40:34.308Z,45.66
2023-02-03T11:43:25.162Z,45.43
2023-02-03T11:46:11.192Z,44.09
2023-02-03T11:49:00.835Z,44.21
2023-02-03T11:51:55.990Z,43.45
2023-02-03T11:54:51.527Z,44.17
2023-02-03T11:58:00.194Z,43.82
2023-02-03T12:00:49.006Z,43.09
2023-02-03T12:03:53.157Z,42.79
2023-02-03T12:07:12.252Z,42.29
2023-02-03T12:10:07.374Z,42.29
2023-02-03T12:13:01.816Z,42.11
2023-02-03T12:16:03.916Z,42.13
2023-02-03T12:18:58.408Z,41.90
2023-02-03T12:21:54.099Z,42.38
2023-02-03T12:24:53.295Z,42.52
2023-02-03T12:27:51.130Z,40.38
2023-02-03T12:30:48.875Z,42.13
2023-02-03T12:33:40.569Z,42.51
2023-02-03T12:36:49.675Z,42.06
2023-02-03T12:40:17.431Z,39.17
2023-02-03T12:43:17.855Z,42.82
2023-02-03T12:46:18.408Z,43.33
2023-02-03T12:49:21.466Z,44.33
2023-02-03T12:52:09.832Z,44.30
2023-02-03T12:54:58.691Z,42.33
2023-02-03T12:58:45.337Z,41.46
2023-02-03T13:01:44.214Z,41.97
2023-02-03T13:04:34.215Z,40.60
2023-02-03T13:07:37.456Z,38.86
2023-02-03T13:10:27.634Z,39.96
2023-02-03T13:13:18.044Z,39.74
2023-02-03T13:16:07.344Z,40.01
2023-02-03T13:18:58.722Z,39.41
2023-02-03T13:21:46.680Z,39.83
2023-02-03T13:24:32.549Z,39.20
2023-02-03T13:27:21.452Z,38.85
2023-02-03T13:30:27.273Z,38.76
2023-02-03T13:33:46.914Z,36.96
2023-02-03T13:37:05.553Z,37.94
2023-02-03T13:40:15.077Z,37.95
2023-02-03T13:43:05.787Z,37.93
2023-02-03T13:45:52.673Z,37.08
2023-02-03T13:48:38.666Z,37.53
2023-02-03T13:51:30.038Z,36.59
2023-02-03T13:54:32.490Z,35.00
2023-02-03T13:57:40.680Z,34.66
2023-02-03T14:00:44.782Z,34.93
2023-02-03T14:03:30.559Z,29.62
2023-02-03T14:06:38.506Z,29.74
2023-02-03T14:09:30.365Z,33.32
2023-02-03T14:12:16.141Z,36.95
2023-02-03T14:15:16.983Z,36.77
2023-02-03T14:18:03.859Z,37.40
2023-02-03T14:20:52.304Z,37.90
2023-02-03T14:23:47.738Z,37.66
2023-02-03T14:26:38.755Z,37.97
2023-02-03T14:29:27.755Z,38.42
2023-02-03T14:32:14.004Z,37.98
2023-02-03T14:34:59.901Z,37.76
2023-02-03T14:38:06.961Z,37.54
2023-02-03T14:41:03.234Z,37.33
2023-02-03T14:44:09.433Z,36.43
2023-02-03T14:47:27.665Z,34.49
2023-02-03T14:50:41.002Z,38.08
2023-02-03T14:54:02.070Z,37.58
2023-02-03T14:57:09.106Z,37.90
2023-02-03T15:00:04.462Z,37.89
2023-02-03T15:03:12.049Z,37.08
2023-02-03T15:06:03.462Z,38.01
2023-02-03T15:08:49.629Z,37.78
2023-02-03T15:11:45.908Z,36.86
2023-02-03T15:14:32.672Z,38.14
2023-02-03T15:17:25.822Z,37.55
2023-02-03T15:20:41.543Z,35.80
2023-02-03T15:23:39.205Z,37.65
2023-02-03T15:26:26.344Z,37.82
2023-02-03T15:29:22.087Z,37.97
2023-02-03T15:32:08.187Z,38.10
2023-02-03T15:34:54.503Z,38.13
2023-02-03T15:37:45.688Z,37.98
2023-02-03T15:40:59.113Z,37.91
2023-02-03T15:43:46.932Z,38.69
2023-02-03T15:46:35.239Z,38.29
2023-02-03T15:49:41.834Z,37.36
2023-02-03T15:52:29.276Z,38.55
2023-02-03T15:55:42.163Z,38.38
2023-02-03T15:58:30.296Z,38.06
2023-02-03T16:01:20.250Z,38.21
2023-02-03T16:04:09.788Z,38.18
2023-02-03T16:06:56.165Z,38.22
2023-02-03T16:09:41.947Z,38.39
2023-02-03T16:12:34.585Z,38.46
2023-02-03T16:15:26.076Z,38.32
2023-02-03T16:18:17.855Z,38.19
2023-02-03T16:21:07.133Z,38.09
2023-02-03T16:23:54.578Z,38.65
2023-02-03T16:26:40.601Z,38.57
2023-02-03T16:29:48.735Z,38.53
2023-02-03T16:32:54.775Z,38.59
2023-02-03T16:36:00.422Z,38.43
2023-02-03T16:39:05.941Z,38.67
2023-02-03T16:42:11.401Z,38.74
2023-02-03T16:45:17.535Z,38.94
2023-02-03T16:48:22.965Z,39.01
2023-02-03T16:51:16.824Z,38.83
2023-02-03T16:54:02.843Z,39.21
2023-02-03T16:56:49.498Z,38.87
2023-02-03T16:59:36.142Z,38.89
2023-02-03T17:02:21.893Z,39.36
2023-02-03T17:05:07.891Z,38.90
2023-02-03T17:07:53.415Z,39.14
2023-02-03T17:10:41.216Z,39.19
2023-02-03T17:13:27.011Z,38.89
2023-02-03T17:16:17.140Z,39.54
2023-02-03T17:19:02.877Z,39.14
2023-02-03T17:21:49.700Z,39.25
2023-02-03T17:24:35.786Z,38.95
2023-02-03T17:27:22.087Z,39.36
2023-02-03T17:30:08.505Z,39.23
2023-02-03T17:32:54.247Z,39.60
2023-02-03T17:35:44.351Z,39.83
2023-02-03T17:38:31.580Z,39.72
2023-02-03T17:53:37.149Z,39.97
2023-02-03T17:56:25.310Z,40.14
2023-02-03T17:59:11.559Z,40.51
2023-02-03T18:01:57.564Z,40.16
2023-02-03T18:04:44.553Z,40.24
2023-02-03T18:07:30.489Z,40.06
2023-02-03T18:10:17.541Z,40.63
2023-02-03T18:13:04.822Z,40.51
2023-02-03T18:15:50.888Z,40.14
2023-02-03T18:18:38.871Z,40.52
2023-02-03T18:21:26.658Z,40.20
2023-02-03T18:24:13.789Z,40.50
2023-02-03T18:27:00.799Z,40.89
2023-02-03T18:29:48.258Z,40.56
2023-02-03T18:32:35.057Z,40.55
2023-02-03T18:35:20.985Z,40.60
2023-02-03T18:38:07.793Z,40.57
2023-02-03T18:40:55.090Z,40.61
2023-02-03T18:43:42.404Z,40.54
2023-02-03T18:46:30.559Z,40.51
2023-02-03T18:49:17.514Z,40.92
2023-02-03T18:52:04.377Z,41.03
2023-02-03T18:54:51.780Z,40.86
2023-02-03T18:57:38.003Z,40.98
2023-02-03T19:00:37.152Z,41.22
2023-02-03T19:03:27.067Z,41.03
2023-02-03T19:06:13.367Z,41.31
2023-02-03T19:09:05.488Z,41.08
2023-02-03T19:11:51.533Z,40.83
2023-02-03T19:14:37.887Z,40.96
2023-02-03T19:22:02.142Z,41.08
2023-02-03T19:24:47.920Z,41.02
2023-02-03T19:27:55.701Z,40.89
2023-02-03T19:31:19.486Z,40.72
2023-02-03T19:34:05.907Z,41.26
2023-02-03T19:36:52.695Z,41.24
2023-02-03T19:39:39.433Z,41.32
2023-02-03T19:42:25.393Z,41.05
2023-02-03T19:45:12.088Z,41.24
2023-02-03T19:47:57.764Z,41.10
2023-02-03T19:50:45.984Z,41.05
2023-02-03T19:53:31.895Z,41.15
2023-02-03T19:56:17.749Z,41.44
2023-02-03T19:59:04.496Z,41.52
2023-02-03T20:01:50.804Z,41.57
2023-02-03T20:04:36.745Z,41.24
2023-02-03T20:07:23.322Z,41.51
2023-02-03T20:10:09.472Z,41.31
2023-02-03T20:12:56.387Z,41.36
2023-02-03T20:15:42.568Z,41.23
2023-02-03T20:18:29.531Z,41.77
2023-02-03T20:21:15.319Z,41.72
2023-02-03T20:24:01.143Z,41.68
2023-02-03T20:26:47.269Z,41.40
2023-02-03T20:29:33.123Z,41.61
2023-02-03T20:32:18.876Z,41.40
2023-02-03T20:35:06.860Z,41.58
2023-02-03T20:37:53.318Z,41.80
2023-02-03T20:40:39.129Z,42.07
2023-02-03T20:43:27.774Z,41.97
2023-02-03T20:46:18.675Z,42.26
2023-02-03T20:49:04.574Z,41.89
2023-02-03T20:51:50.259Z,41.83
2023-02-03T20:54:37.283Z,42.16
2023-02-03T20:57:23.230Z,42.07
2023-02-03T21:00:23.436Z,42.06
2023-02-03T21:03:33.009Z,42.09
2023-02-03T21:06:20.231Z,42.29
2023-02-03T21:09:15.985Z,42.22
2023-02-03T21:12:01.940Z,42.26
2023-02-03T21:14:53.265Z,42.53
2023-02-03T21:17:39.043Z,42.24
2023-02-03T21:20:31.210Z,42.32
2023-02-03T21:23:17.989Z,42.63
2023-02-03T21:26:16.394Z,42.92
2023-02-03T21:29:02.459Z,42.67
2023-02-03T21:31:48.759Z,42.75
2023-02-03T21:34:35.790Z,42.66
2023-02-03T21:37:39.069Z,42.65
2023-02-03T21:40:27.909Z,43.03
2023-02-03T21:43:18.431Z,42.75
2023-02-03T21:46:04.238Z,42.89
2023-02-03T21:48:55.211Z,43.15
2023-02-03T21:51:41.814Z,43.21
2023-02-03T21:54:30.459Z,42.96
2023-02-03T21:57:17.117Z,43.22
2023-02-03T22:00:35.067Z,43.42
2023-02-03T22:03:30.546Z,43.01
2023-02-03T22:06:20.840Z,43.36
2023-02-03T22:09:07.092Z,43.39
2023-02-03T22:11:53.163Z,43.10
2023-02-03T22:14:39.233Z,43.38
2023-02-03T22:17:25.070Z,43.30
2023-02-03T22:20:12.087Z,43.04
2023-02-03T22:22:57.920Z,43.56
2023-02-03T22:25:44.317Z,43.39
2023-02-03T22:28:30.182Z,43.65
2023-02-03T22:31:16.454Z,43.64
2023-02-03T22:34:02.674Z,43.37
2023-02-03T22:36:48.592Z,43.80
2023-02-03T22:39:34.366Z,43.78
2023-02-03T22:42:22.372Z,44.05
2023-02-03T22:45:09.013Z,44.02
2023-02-03T22:47:57.185Z,43.75
2023-02-03T22:50:43.350Z,44.06
2023-02-03T22:53:29.557Z,44.27
2023-02-03T22:56:15.260Z,44.24
2023-02-03T22:59:02.998Z,44.65
2023-02-03T23:01:48.708Z,44.21
2023-02-03T23:04:34.784Z,44.56
2023-02-03T23:07:20.574Z,44.40
2023-02-03T23:10:10.522Z,44.98
2023-02-03T23:12:58.527Z,44.95
2023-02-03T23:15:48.739Z,44.69
2023-02-03T23:18:34.480Z,44.70
2023-02-03T23:21:20.226Z,45.03
2023-02-03T23:24:06.376Z,45.31
2023-02-03T23:26:53.856Z,45.37
2023-02-03T23:29:39.912Z,45.06
2023-02-03T23:32:25.966Z,45.52
2023-02-03T23:35:30.509Z,45.73
2023-02-03T23:38:17.787Z,45.58
2023-02-03T23:41:03.885Z,46.41
2023-02-03T23:43:49.835Z,45.75
2023-02-03T23:46:35.911Z,46.27
2023-02-03T23:49:21.766Z,46.49
2023-02-03T23:52:07.732Z,46.77
2023-02-03T23:54:53.522Z,46.35
2023-02-03T23:57:39.288Z,46.39
